createdAt,value
2022-08-26T00:00:02.074Z,1015.5
2022-08-26T00:01:02.711Z,1015.5
2022-08-26T00:02:03.428Z,1015.5
2022-08-26T00:03:03.429Z,1015.5
2022-08-26T00:04:02.592Z,1015.5
2022-08-26T00:05:02.387Z,1015.4
2022-08-26T00:06:02.973Z,1015.4
2022-08-26T00:07:02.746Z,1015.4
2022-08-26T00:08:02.500Z,1015.4
2022-08-26T00:09:02.538Z,1015.4
2022-08-26T00:10:02.598Z,1015.4
2022-08-26T00:11:02.455Z,1015.4
2022-08-26T00:12:02.260Z,1015.4
2022-08-26T00:13:02.129Z,1015.4
2022-08-26T00:14:01.904Z,1015.3
2022-08-26T00:15:02.800Z,1015.3
2022-08-26T00:16:02.834Z,1015.4
2022-08-26T00:17:02.844Z,1015.2
2022-08-26T00:18:02.743Z,1015.4
2022-08-26T00:19:02.568Z,1015.3
2022-08-26T00:20:02.452Z,1015.3
2022-08-26T00:21:06.937Z,1015.2
2022-08-26T00:22:02.753Z,1015.3
2022-08-26T00:23:02.634Z,1015.2
2022-08-26T00:24:02.750Z,1015.3
2022-08-26T00:25:03.140Z,1015.3
2022-08-26T00:26:02.090Z,1015.2
2022-08-26T00:27:02.067Z,1015.3
2022-08-26T00:28:02.087Z,1015.3
2022-08-26T00:29:01.865Z,1015.3
2022-08-26T00:30:02.139Z,1015.3
2022-08-26T00:31:03.654Z,1015.3
2022-08-26T00:32:04.860Z,1015.3
2022-08-26T00:33:02.978Z,1015.3
2022-08-26T00:34:01.891Z,1015.3
2022-08-26T00:35:02.337Z,1015.3
2022-08-26T00:36:02.946Z,1015.3
2022-08-26T00:37:03.843Z,1015.4
2022-08-26T00:38:02.042Z,1015.3
2022-08-26T00:39:02.651Z,1015.3
2022-08-26T00:40:05.966Z,1015.3
2022-08-26T00:41:01.831Z,1015.3
2022-08-26T00:42:02.723Z,1015.3
2022-08-26T00:43:10.057Z,1015.3
2022-08-26T00:44:01.876Z,1015.3
2022-08-26T00:45:12.085Z,1015.3
2022-08-26T00:46:03.004Z,1015.3
2022-08-26T00:47:02.691Z,1015.3
2022-08-26T00:48:04.241Z,1015.3
2022-08-26T00:49:02.581Z,1015.3
2022-08-26T00:50:02.220Z,1015.3
2022-08-26T00:51:04.190Z,1015.2
2022-08-26T00:52:02.355Z,1015.3
2022-08-26T00:53:02.232Z,1015.3
2022-08-26T00:54:04.140Z,1015.2
2022-08-26T00:55:03.094Z,1015.3
2022-08-26T00:56:01.835Z,1015.3
2022-08-26T00:57:15.887Z,1015.3
2022-08-26T00:58:03.018Z,1015.3
2022-08-26T00:59:04.897Z,1015.3
2022-08-26T01:00:02.718Z,1015.3
2022-08-26T01:01:02.147Z,1015.3
2022-08-26T01:02:03.702Z,1015.3
2022-08-26T01:03:12.649Z,1015.3
2022-08-26T01:04:02.647Z,1015.4
2022-08-26T01:05:05.800Z,1015.3
2022-08-26T01:06:02.294Z,1015.4
2022-08-26T01:07:03.051Z,1015.4
2022-08-26T01:08:04.162Z,1015.4
2022-08-26T01:09:01.930Z,1015.4
2022-08-26T01:10:01.846Z,1015.4
2022-08-26T01:11:04.575Z,1015.4
2022-08-26T01:12:03.195Z,1015.3
2022-08-26T01:13:03.988Z,1015.3
2022-08-26T01:14:03.204Z,1015.3
2022-08-26T01:15:02.062Z,1015.3
2022-08-26T01:16:02.638Z,1015.4
2022-08-26T01:17:05.536Z,1015.4
2022-08-26T01:18:02.634Z,1015.4
2022-08-26T01:19:03.906Z,1015.3
2022-08-26T01:20:03.839Z,1015.4
2022-08-26T01:21:02.681Z,1015.4
2022-08-26T01:22:02.021Z,1015.4
2022-08-26T01:23:03.955Z,1015.4
2022-08-26T01:24:01.785Z,1015.4
2022-08-26T01:25:04.200Z,1015.4
2022-08-26T01:26:02.928Z,1015.4
2022-08-26T01:27:01.862Z,1015.3
2022-08-26T01:28:02.680Z,1015.4
2022-08-26T01:29:02.553Z,1015.4
2022-08-26T01:30:02.946Z,1015.4
2022-08-26T01:31:02.630Z,1015.4
2022-08-26T01:32:05.685Z,1015.4
2022-08-26T01:33:02.614Z,1015.4
2022-08-26T01:34:02.676Z,1015.4
2022-08-26T01:35:02.487Z,1015.3
2022-08-26T01:36:02.379Z,1015.3
2022-08-26T01:37:02.248Z,1015.3
2022-08-26T01:38:02.679Z,1015.3
2022-08-26T01:39:07.588Z,1015.4
2022-08-26T01:40:02.776Z,1015.4
2022-08-26T01:41:19.859Z,1015.4
2022-08-26T01:42:03.776Z,1015.3
2022-08-26T01:43:01.892Z,1015.4
2022-08-26T01:44:02.716Z,1015.3
2022-08-26T01:45:02.562Z,1015.3
2022-08-26T01:46:02.871Z,1015.3
2022-08-26T01:47:06.476Z,1015.3
2022-08-26T01:48:02.390Z,1015.3
2022-08-26T01:49:02.683Z,1015.3
2022-08-26T01:50:03.485Z,1015.3
2022-08-26T01:51:02.289Z,1015.3
2022-08-26T01:52:03.504Z,1015.3
2022-08-26T01:53:02.134Z,1015.3
2022-08-26T01:54:03.666Z,1015.3
2022-08-26T01:55:02.526Z,1015.3
2022-08-26T01:56:03.539Z,1015.3
2022-08-26T01:57:02.392Z,1015.3
2022-08-26T01:58:02.450Z,1015.3
2022-08-26T01:59:02.579Z,1015.3
2022-08-26T02:00:02.446Z,1015.3
2022-08-26T02:01:04.263Z,1015.3
2022-08-26T02:02:02.871Z,1015.3
2022-08-26T02:03:02.694Z,1015.3
2022-08-26T02:04:02.562Z,1015.3
2022-08-26T02:05:02.495Z,1015.3
2022-08-26T02:06:02.285Z,1015.3
2022-08-26T02:07:02.111Z,1015.3
2022-08-26T02:08:03.239Z,1015.3
2022-08-26T02:09:01.853Z,1015.3
2022-08-26T02:10:03.836Z,1015.2
2022-08-26T02:11:02.753Z,1015.3
2022-08-26T02:12:02.569Z,1015.3
2022-08-26T02:13:02.176Z,1015.2
2022-08-26T02:14:03.556Z,1015.2
2022-08-26T02:15:06.190Z,1015.3
2022-08-26T02:16:02.730Z,1015.3
2022-08-26T02:17:02.552Z,1015.2
2022-08-26T02:18:02.443Z,1015.3
2022-08-26T02:19:04.101Z,1015.3
2022-08-26T02:20:02.337Z,1015.3
2022-08-26T02:21:02.164Z,1015.3
2022-08-26T02:22:03.675Z,1015.2
2022-08-26T02:23:01.973Z,1015.2
2022-08-26T02:24:02.136Z,1015.3
2022-08-26T02:25:02.832Z,1015.2
2022-08-26T02:26:02.626Z,1015.2
2022-08-26T02:27:03.053Z,1015.3
2022-08-26T02:28:04.801Z,1015.2
2022-08-26T02:29:02.925Z,1015.2
2022-08-26T02:30:03.050Z,1015.2
2022-08-26T02:31:05.007Z,1015.2
2022-08-26T02:32:01.854Z,1015.2
2022-08-26T02:33:02.676Z,1015.2
2022-08-26T02:34:02.512Z,1015.1
2022-08-26T02:35:02.394Z,1015.2
2022-08-26T02:36:03.753Z,1015.2
2022-08-26T02:37:03.772Z,1015.2
2022-08-26T02:38:11.144Z,1015.2
2022-08-26T02:39:02.105Z,1015.2
2022-08-26T02:40:03.752Z,1015.1
2022-08-26T02:41:02.127Z,1015.2
2022-08-26T02:42:02.200Z,1015.2
2022-08-26T02:43:02.410Z,1015.2
2022-08-26T02:44:02.268Z,1015.1
2022-08-26T02:45:03.022Z,1015.2
2022-08-26T02:46:03.044Z,1015.2
2022-08-26T02:47:02.003Z,1015.1
2022-08-26T02:48:02.107Z,1015.2
2022-08-26T02:49:01.914Z,1015.1
2022-08-26T02:50:01.760Z,1015.1
2022-08-26T02:51:02.675Z,1015.1
2022-08-26T02:52:03.488Z,1015.1
2022-08-26T02:53:03.017Z,1015.1
2022-08-26T02:54:01.935Z,1015.1
2022-08-26T02:55:02.800Z,1015.1
2022-08-26T02:56:03.728Z,1015.1
2022-08-26T02:57:03.691Z,1015.1
2022-08-26T02:58:03.403Z,1015.1
2022-08-26T02:59:02.313Z,1015.1
2022-08-26T03:00:03.319Z,1015.1
2022-08-26T03:01:06.699Z,1015
2022-08-26T03:02:03.329Z,1015.1
2022-08-26T03:03:02.462Z,1015
2022-08-26T03:04:02.318Z,1015
2022-08-26T03:05:02.965Z,1015
2022-08-26T03:06:01.872Z,1015
2022-08-26T03:07:02.776Z,1015
2022-08-26T03:08:02.515Z,1015
2022-08-26T03:09:02.332Z,1015
2022-08-26T03:10:09.188Z,1015
2022-08-26T03:11:02.310Z,1015
2022-08-26T03:12:02.448Z,1015.1
2022-08-26T03:13:06.251Z,1015.1
2022-08-26T03:14:04.137Z,1015
2022-08-26T03:15:17.726Z,1015
2022-08-26T03:16:02.784Z,1015.1
2022-08-26T03:17:04.391Z,1015
2022-08-26T03:18:02.175Z,1015
2022-08-26T03:19:02.066Z,1015
2022-08-26T03:20:02.320Z,1015
2022-08-26T03:21:02.128Z,1015
2022-08-26T03:22:01.995Z,1015.1
2022-08-26T03:23:04.632Z,1015.1
2022-08-26T03:24:02.500Z,1015
2022-08-26T03:25:03.658Z,1015.1
2022-08-26T03:26:02.424Z,1015
2022-08-26T03:27:07.717Z,1015
2022-08-26T03:28:03.074Z,1015
2022-08-26T03:29:03.463Z,1015
2022-08-26T03:30:03.148Z,1015
2022-08-26T03:31:02.583Z,1015
2022-08-26T03:32:02.807Z,1015
2022-08-26T03:33:02.921Z,1015
2022-08-26T03:34:02.770Z,1014.9
2022-08-26T03:35:02.724Z,1015
2022-08-26T03:36:02.927Z,1015
2022-08-26T03:37:03.270Z,1015
2022-08-26T03:38:02.524Z,1014.9
2022-08-26T03:39:02.790Z,1015
2022-08-26T03:40:02.917Z,1015
2022-08-26T03:41:03.364Z,1015.1
2022-08-26T03:42:02.197Z,1015
2022-08-26T03:43:02.520Z,1015
2022-08-26T03:44:03.660Z,1015
2022-08-26T03:45:01.824Z,1015
2022-08-26T03:46:05.208Z,1015
2022-08-26T03:47:06.202Z,1015
2022-08-26T03:48:02.608Z,1015
2022-08-26T03:49:02.322Z,1015
2022-08-26T03:50:02.300Z,1014.9
2022-08-26T03:51:04.049Z,1014.9
2022-08-26T03:52:01.833Z,1014.9
2022-08-26T03:53:02.946Z,1014.9
2022-08-26T03:54:03.081Z,1014.9
2022-08-26T03:55:03.441Z,1014.9
2022-08-26T03:56:02.134Z,1014.9
2022-08-26T03:57:02.017Z,1015
2022-08-26T03:58:03.616Z,1015
2022-08-26T03:59:02.452Z,1014.9
2022-08-26T04:00:02.330Z,1014.9
2022-08-26T04:01:02.749Z,1014.8
2022-08-26T04:02:02.921Z,1014.9
2022-08-26T04:03:02.596Z,1014.9
2022-08-26T04:04:03.744Z,1014.9
2022-08-26T04:05:02.556Z,1014.9
2022-08-26T04:06:02.378Z,1014.9
2022-08-26T04:07:02.282Z,1014.9
2022-08-26T04:08:02.105Z,1015
2022-08-26T04:09:01.899Z,1015
2022-08-26T04:10:02.770Z,1014.9
2022-08-26T04:11:02.832Z,1015
2022-08-26T04:12:03.864Z,1015
2022-08-26T04:13:02.699Z,1015
2022-08-26T04:14:02.591Z,1014.9
2022-08-26T04:15:03.592Z,1015
2022-08-26T04:16:02.881Z,1015
2022-08-26T04:17:02.037Z,1014.9
2022-08-26T04:18:01.880Z,1014.9
2022-08-26T04:19:03.337Z,1014.9
2022-08-26T04:20:02.124Z,1014.9
2022-08-26T04:21:08.107Z,1014.9
2022-08-26T04:22:01.870Z,1014.9
2022-08-26T04:23:02.918Z,1014.9
2022-08-26T04:24:04.464Z,1014.9
2022-08-26T04:25:02.364Z,1014.9
2022-08-26T04:26:02.174Z,1014.8
2022-08-26T04:27:02.001Z,1014.8
2022-08-26T04:28:01.870Z,1014.8
2022-08-26T04:29:02.824Z,1014.8
2022-08-26T04:30:02.636Z,1014.9
2022-08-26T04:31:02.806Z,1014.9
2022-08-26T04:32:02.650Z,1014.8
2022-08-26T04:33:02.678Z,1014.9
2022-08-26T04:34:02.718Z,1014.9
2022-08-26T04:35:04.805Z,1014.9
2022-08-26T04:36:02.353Z,1014.8
2022-08-26T04:37:02.546Z,1014.9
2022-08-26T04:38:07.833Z,1014.9
2022-08-26T04:39:02.663Z,1014.9
2022-08-26T04:40:04.293Z,1014.9
2022-08-26T04:41:16.860Z,1014.9
2022-08-26T04:42:02.249Z,1014.9
2022-08-26T04:43:02.267Z,1014.9
2022-08-26T04:44:02.112Z,1014.9
2022-08-26T04:45:10.598Z,1014.9
2022-08-26T04:46:02.511Z,1014.9
2022-08-26T04:47:03.555Z,1014.9
2022-08-26T04:48:04.818Z,1014.9
2022-08-26T04:49:02.754Z,1014.9
2022-08-26T04:50:03.016Z,1014.9
2022-08-26T04:51:01.844Z,1014.9
2022-08-26T04:52:02.991Z,1014.9
2022-08-26T04:53:01.922Z,1014.9
2022-08-26T04:54:02.355Z,1014.9
2022-08-26T04:55:02.222Z,1014.8
2022-08-26T04:56:04.628Z,1014.9
2022-08-26T04:57:02.448Z,1014.9
2022-08-26T04:58:02.321Z,1014.9
2022-08-26T04:59:02.806Z,1014.9
2022-08-26T05:00:03.641Z,1014.9
2022-08-26T05:01:02.374Z,1014.8
2022-08-26T05:02:02.488Z,1014.8
2022-08-26T05:03:02.418Z,1014.8
2022-08-26T05:04:08.524Z,1014.8
2022-08-26T05:05:02.776Z,1014.8
2022-08-26T05:06:03.494Z,1014.9
2022-08-26T05:07:03.510Z,1014.8
2022-08-26T05:08:02.353Z,1014.9
2022-08-26T05:09:02.935Z,1014.9
2022-08-26T05:10:08.694Z,1014.9
2022-08-26T05:11:03.054Z,1014.9
2022-08-26T05:12:03.526Z,1014.9
2022-08-26T05:13:12.117Z,1014.9
2022-08-26T05:14:02.975Z,1014.9
2022-08-26T05:15:03.444Z,1014.9
2022-08-26T05:16:03.012Z,1014.9
2022-08-26T05:17:02.345Z,1014.9
2022-08-26T05:18:02.409Z,1014.9
2022-08-26T05:19:02.712Z,1015
2022-08-26T05:20:04.098Z,1014.9
2022-08-26T05:21:01.866Z,1014.9
2022-08-26T05:22:03.305Z,1014.9
2022-08-26T05:23:02.332Z,1015
2022-08-26T05:24:03.477Z,1014.9
2022-08-26T05:25:02.533Z,1014.9
2022-08-26T05:26:05.784Z,1014.9
2022-08-26T05:27:02.620Z,1014.9
2022-08-26T05:28:02.527Z,1014.9
2022-08-26T05:29:02.581Z,1014.9
2022-08-26T05:30:03.756Z,1015
2022-08-26T05:31:02.019Z,1014.9
2022-08-26T05:32:03.024Z,1014.9
2022-08-26T05:33:03.243Z,1014.9
2022-08-26T05:34:04.393Z,1014.9
2022-08-26T05:35:01.853Z,1014.9
2022-08-26T05:36:03.319Z,1014.9
2022-08-26T05:37:02.594Z,1014.9
2022-08-26T05:38:02.023Z,1014.9
2022-08-26T05:39:02.742Z,1014.9
2022-08-26T05:40:02.873Z,1014.9
2022-08-26T05:41:04.902Z,1014.9
2022-08-26T05:42:02.768Z,1014.9
2022-08-26T05:43:02.860Z,1014.9
2022-08-26T05:44:02.681Z,1014.9
2022-08-26T05:45:03.349Z,1014.9
2022-08-26T05:46:06.501Z,1014.9
2022-08-26T05:47:04.434Z,1014.9
2022-08-26T05:48:06.353Z,1014.8
2022-08-26T05:49:02.505Z,1014.9
2022-08-26T05:50:02.980Z,1014.8
2022-08-26T05:51:01.966Z,1014.8
2022-08-26T05:52:01.919Z,1014.8
2022-08-26T05:53:03.049Z,1014.8
2022-08-26T05:54:04.214Z,1014.8
2022-08-26T05:55:02.023Z,1014.8
2022-08-26T05:56:02.011Z,1014.8
2022-08-26T05:57:01.798Z,1014.8
2022-08-26T05:58:03.296Z,1014.8
2022-08-26T05:59:02.210Z,1014.8
2022-08-26T06:00:02.091Z,1014.8
2022-08-26T06:01:04.349Z,1014.9
2022-08-26T06:02:02.619Z,1014.8
2022-08-26T06:03:02.927Z,1014.8
2022-08-26T06:04:02.464Z,1014.8
2022-08-26T06:05:02.475Z,1014.8
2022-08-26T06:06:03.266Z,1014.8
2022-08-26T06:07:02.535Z,1014.8
2022-08-26T06:08:02.424Z,1014.7
2022-08-26T06:09:02.789Z,1014.8
2022-08-26T06:10:33.090Z,1014.8
2022-08-26T06:11:02.278Z,1014.8
2022-08-26T06:12:02.479Z,1014.7
2022-08-26T06:13:12.668Z,1014.8
2022-08-26T06:14:04.735Z,1014.8
2022-08-26T06:15:04.593Z,1014.8
2022-08-26T06:16:03.047Z,1014.7
2022-08-26T06:17:03.810Z,1014.8
2022-08-26T06:18:03.117Z,1014.8
2022-08-26T06:19:03.211Z,1014.8
2022-08-26T06:20:02.613Z,1014.8
2022-08-26T06:21:02.423Z,1014.8
2022-08-26T06:22:02.402Z,1014.8
2022-08-26T06:23:04.659Z,1014.8
2022-08-26T06:24:02.541Z,1014.9
2022-08-26T06:25:02.524Z,1014.8
2022-08-26T06:26:02.900Z,1014.9
2022-08-26T06:27:02.760Z,1014.9
2022-08-26T06:28:03.986Z,1014.9
2022-08-26T06:29:04.559Z,1014.9
2022-08-26T06:30:04.154Z,1014.9
2022-08-26T06:31:02.823Z,1014.9
2022-08-26T06:32:02.899Z,1014.9
2022-08-26T06:33:05.256Z,1014.9
2022-08-26T06:34:02.223Z,1014.9
2022-08-26T06:35:02.203Z,1014.9
2022-08-26T06:36:02.131Z,1014.8
2022-08-26T06:37:03.696Z,1014.9
2022-08-26T06:38:04.800Z,1014.8
2022-08-26T06:39:02.620Z,1014.9
2022-08-26T06:40:04.411Z,1014.9
2022-08-26T06:41:03.298Z,1014.9
2022-08-26T06:42:06.634Z,1014.9
2022-08-26T06:43:03.672Z,1014.9
2022-08-26T06:44:02.024Z,1014.9
2022-08-26T06:45:04.823Z,1014.9
2022-08-26T06:46:05.510Z,1014.9
2022-08-26T06:47:02.412Z,1014.9
2022-08-26T06:48:02.626Z,1014.9
2022-08-26T06:49:02.329Z,1014.9
2022-08-26T06:50:02.390Z,1014.9
2022-08-26T06:51:02.341Z,1014.8
2022-08-26T06:52:02.312Z,1014.8
2022-08-26T06:53:02.852Z,1014.7
2022-08-26T06:54:03.035Z,1014.8
2022-08-26T06:55:02.322Z,1014.8
2022-08-26T06:56:02.255Z,1014.8
2022-08-26T06:57:02.516Z,1014.8
2022-08-26T06:58:04.907Z,1014.8
2022-08-26T06:59:02.734Z,1014.8
2022-08-26T07:00:02.674Z,1014.8
2022-08-26T07:01:12.176Z,1014.8
2022-08-26T07:02:02.902Z,1014.8
2022-08-26T07:03:02.319Z,1014.8
2022-08-26T07:04:02.425Z,1014.9
2022-08-26T07:05:02.266Z,1014.9
2022-08-26T07:06:03.744Z,1014.9
2022-08-26T07:07:02.978Z,1015
2022-08-26T07:08:01.821Z,1014.9
2022-08-26T07:09:03.787Z,1015
2022-08-26T07:10:02.690Z,1014.9
2022-08-26T07:11:02.509Z,1014.9
2022-08-26T07:12:04.815Z,1014.9
2022-08-26T07:13:06.085Z,1014.9
2022-08-26T07:14:02.042Z,1014.9
2022-08-26T07:15:01.885Z,1014.9
2022-08-26T07:16:04.501Z,1014.9
2022-08-26T07:17:01.826Z,1014.9
2022-08-26T07:18:02.773Z,1014.9
2022-08-26T07:19:11.587Z,1015
2022-08-26T07:20:02.548Z,1015
2022-08-26T07:21:04.144Z,1014.9
2022-08-26T07:22:03.308Z,1015
2022-08-26T07:23:02.550Z,1014.9
2022-08-26T07:24:03.012Z,1015
2022-08-26T07:25:03.724Z,1015
2022-08-26T07:26:02.594Z,1015
2022-08-26T07:27:05.900Z,1015
2022-08-26T07:28:03.833Z,1014.9
2022-08-26T07:29:02.948Z,1015
2022-08-26T07:30:03.088Z,1015
2022-08-26T07:31:02.303Z,1014.9
2022-08-26T07:32:02.237Z,1014.9
2022-08-26T07:33:02.790Z,1014.9
2022-08-26T07:34:05.347Z,1014.9
2022-08-26T07:35:02.713Z,1014.9
2022-08-26T07:36:06.501Z,1014.9
2022-08-26T07:37:02.684Z,1014.9
2022-08-26T07:38:03.626Z,1014.9
2022-08-26T07:39:02.946Z,1014.9
2022-08-26T07:40:03.150Z,1014.9
2022-08-26T07:41:02.204Z,1014.9
2022-08-26T07:42:08.880Z,1014.9
2022-08-26T07:43:03.163Z,1014.9
2022-08-26T07:44:01.998Z,1014.9
2022-08-26T07:45:02.334Z,1015
2022-08-26T07:46:02.354Z,1015
2022-08-26T07:47:02.546Z,1014.9
2022-08-26T07:48:04.446Z,1015
2022-08-26T07:49:03.064Z,1015
2022-08-26T07:50:01.897Z,1014.9
2022-08-26T07:51:02.951Z,1014.9
2022-08-26T07:52:02.812Z,1014.9
2022-08-26T07:53:02.906Z,1014.9
2022-08-26T07:54:02.715Z,1015
2022-08-26T07:55:02.764Z,1014.9
2022-08-26T07:56:02.742Z,1014.9
2022-08-26T07:57:10.497Z,1014.9
2022-08-26T07:58:02.322Z,1015
2022-08-26T07:59:14.947Z,1015
2022-08-26T08:00:02.025Z,1015
2022-08-26T08:01:07.636Z,1014.9
2022-08-26T08:02:03.756Z,1014.9
2022-08-26T08:03:03.098Z,1015
2022-08-26T08:04:02.819Z,1014.9
2022-08-26T08:05:03.886Z,1015
2022-08-26T08:06:02.823Z,1015
2022-08-26T08:07:02.771Z,1015
2022-08-26T08:08:29.543Z,1015
2022-08-26T08:09:02.358Z,1015
2022-08-26T08:10:09.985Z,1015
2022-08-26T08:11:02.513Z,1015
2022-08-26T08:12:02.343Z,1015.1
2022-08-26T08:13:03.457Z,1015
2022-08-26T08:14:02.485Z,1015
2022-08-26T08:15:02.102Z,1015
2022-08-26T08:16:02.040Z,1015
2022-08-26T08:17:03.109Z,1015
2022-08-26T08:18:05.508Z,1014.9
2022-08-26T08:19:04.357Z,1014.9
2022-08-26T08:20:04.772Z,1015
2022-08-26T08:21:24.497Z,1014.9
2022-08-26T08:22:02.368Z,1014.9
2022-08-26T08:23:02.402Z,1014.9
2022-08-26T08:24:02.425Z,1014.9
2022-08-26T08:25:10.794Z,1014.8
2022-08-26T08:26:02.810Z,1014.9
2022-08-26T08:27:02.743Z,1014.9
2022-08-26T08:28:02.778Z,1014.9
2022-08-26T08:29:03.071Z,1014.9
2022-08-26T08:30:02.199Z,1014.8
2022-08-26T08:31:03.664Z,1014.9
2022-08-26T08:32:03.056Z,1014.8
2022-08-26T08:33:02.697Z,1014.9
2022-08-26T08:34:03.100Z,1014.9
2022-08-26T08:35:12.155Z,1014.9
2022-08-26T08:36:02.095Z,1014.8
2022-08-26T08:37:10.581Z,1014.9
2022-08-26T08:38:04.860Z,1014.8
2022-08-26T08:39:01.798Z,1014.8
2022-08-26T08:40:02.946Z,1014.8
2022-08-26T08:41:06.032Z,1014.8
2022-08-26T08:42:02.958Z,1014.8
2022-08-26T08:43:02.166Z,1014.8
2022-08-26T08:44:02.000Z,1014.8
2022-08-26T08:45:01.891Z,1014.8
2022-08-26T08:46:05.024Z,1014.8
2022-08-26T08:47:02.403Z,1014.7
2022-08-26T08:48:02.542Z,1014.7
2022-08-26T08:49:03.187Z,1014.7
2022-08-26T08:50:02.076Z,1014.7
2022-08-26T08:51:02.002Z,1014.7
2022-08-26T08:52:01.841Z,1014.7
2022-08-26T08:53:02.071Z,1014.7
2022-08-26T08:54:02.488Z,1014.7
2022-08-26T08:55:01.979Z,1014.8
2022-08-26T08:56:01.969Z,1014.7
2022-08-26T08:57:03.574Z,1014.7
2022-08-26T08:58:03.028Z,1014.6
2022-08-26T08:59:02.175Z,1014.7
2022-08-26T09:00:02.100Z,1014.7
2022-08-26T09:01:04.769Z,1014.7
2022-08-26T09:02:02.727Z,1014.7
2022-08-26T09:03:02.690Z,1014.7
2022-08-26T09:04:02.517Z,1014.7
2022-08-26T09:05:02.819Z,1014.7
2022-08-26T09:06:03.859Z,1014.7
2022-08-26T09:07:03.025Z,1014.6
2022-08-26T09:08:01.948Z,1014.6
2022-08-26T09:09:04.225Z,1014.6
2022-08-26T09:10:02.040Z,1014.7
2022-08-26T09:11:02.343Z,1014.6
2022-08-26T09:12:03.185Z,1014.6
2022-08-26T09:13:04.886Z,1014.6
2022-08-26T09:14:02.694Z,1014.6
2022-08-26T09:15:02.772Z,1014.6
2022-08-26T09:16:02.385Z,1014.6
2022-08-26T09:17:03.114Z,1014.6
2022-08-26T09:18:06.368Z,1014.5
2022-08-26T09:19:04.066Z,1014.6
2022-08-26T09:20:02.062Z,1014.5
2022-08-26T09:21:01.944Z,1014.5
2022-08-26T09:22:10.124Z,1014.5
2022-08-26T09:23:02.940Z,1014.5
2022-08-26T09:24:02.824Z,1014.5
2022-08-26T09:25:02.569Z,1014.5
2022-08-26T09:26:02.814Z,1014.5
2022-08-26T09:27:05.856Z,1014.5
2022-08-26T09:28:04.269Z,1014.5
2022-08-26T09:29:02.559Z,1014.5
2022-08-26T09:30:02.504Z,1014.4
2022-08-26T09:31:11.642Z,1014.5
2022-08-26T09:32:02.571Z,1014.5
2022-08-26T09:33:02.542Z,1014.4
2022-08-26T09:34:03.769Z,1014.4
2022-08-26T09:35:01.963Z,1014.4
2022-08-26T09:36:02.048Z,1014.5
2022-08-26T09:37:05.216Z,1014.4
2022-08-26T09:38:02.281Z,1014.4
2022-08-26T09:39:02.322Z,1014.4
2022-08-26T09:40:02.591Z,1014.4
2022-08-26T09:41:05.374Z,1014.3
2022-08-26T09:42:03.163Z,1014.4
2022-08-26T09:43:04.434Z,1014.4
2022-08-26T09:44:02.632Z,1014.4
2022-08-26T09:45:02.465Z,1014.4
2022-08-26T09:46:02.292Z,1014.5
2022-08-26T09:47:02.240Z,1014.4
2022-08-26T09:48:02.999Z,1014.4
2022-08-26T09:49:05.871Z,1014.4
2022-08-26T09:50:04.602Z,1014.4
2022-08-26T09:51:02.799Z,1014.5
2022-08-26T09:52:03.850Z,1014.4
2022-08-26T09:53:02.873Z,1014.4
2022-08-26T09:54:02.461Z,1014.4
2022-08-26T09:55:04.023Z,1014.4
2022-08-26T09:56:02.554Z,1014.4
2022-08-26T09:57:02.711Z,1014.4
2022-08-26T09:58:09.852Z,1014.4
2022-08-26T09:59:02.153Z,1014.4
2022-08-26T10:00:02.864Z,1014.4
2022-08-26T10:01:04.501Z,1014.4
2022-08-26T10:03:02.375Z,1014.4
2022-08-26T10:04:02.618Z,1014.4
2022-08-26T10:05:10.207Z,1014.4
2022-08-26T10:06:02.900Z,1014.3
2022-08-26T10:07:02.521Z,1014.3
2022-08-26T10:08:03.502Z,1014.3
2022-08-26T10:09:10.911Z,1014.4
2022-08-26T10:10:01.859Z,1014.3
2022-08-26T10:11:02.799Z,1014.4
2022-08-26T10:12:02.169Z,1014.3
2022-08-26T10:13:02.345Z,1014.3
2022-08-26T10:14:02.750Z,1014.4
2022-08-26T10:15:03.026Z,1014.4
2022-08-26T10:16:02.302Z,1014.3
2022-08-26T10:17:02.420Z,1014.3
2022-08-26T10:18:04.011Z,1014.3
2022-08-26T10:19:02.005Z,1014.3
2022-08-26T10:20:02.265Z,1014.3
2022-08-26T10:21:03.873Z,1014.3
2022-08-26T10:22:02.777Z,1014.2
2022-08-26T10:23:03.235Z,1014.3
2022-08-26T10:24:02.380Z,1014.2
2022-08-26T10:25:04.184Z,1014.3
2022-08-26T10:26:02.945Z,1014.3
2022-08-26T10:27:03.263Z,1014.2
2022-08-26T10:28:02.092Z,1014.2
2022-08-26T10:29:02.064Z,1014.2
2022-08-26T10:30:01.838Z,1014.2
2022-08-26T10:31:02.084Z,1014.2
2022-08-26T10:32:04.101Z,1014.2
2022-08-26T10:33:02.015Z,1014.2
2022-08-26T10:34:01.905Z,1014.2
2022-08-26T10:35:02.815Z,1014.1
2022-08-26T10:36:02.656Z,1014.2
2022-08-26T10:37:16.981Z,1014.1
2022-08-26T10:38:02.865Z,1014.1
2022-08-26T10:39:02.733Z,1014.1
2022-08-26T10:40:03.565Z,1014.1
2022-08-26T10:41:10.587Z,1014.1
2022-08-26T10:42:02.743Z,1014.1
2022-08-26T10:43:11.788Z,1014.1
2022-08-26T10:44:04.362Z,1014.1
2022-08-26T10:45:02.815Z,1014
2022-08-26T10:46:03.760Z,1014
2022-08-26T10:47:05.519Z,1014
2022-08-26T10:48:02.796Z,1014
2022-08-26T10:49:07.323Z,1014.1
2022-08-26T10:50:04.078Z,1014.1
2022-08-26T10:51:02.841Z,1014
2022-08-26T10:52:02.775Z,1014
2022-08-26T10:53:02.601Z,1014
2022-08-26T10:54:03.808Z,1014
2022-08-26T10:55:03.625Z,1014
2022-08-26T10:56:04.742Z,1014
2022-08-26T10:57:02.576Z,1014
2022-08-26T10:58:09.395Z,1014
2022-08-26T10:59:03.217Z,1014.1
2022-08-26T11:00:05.573Z,1014
2022-08-26T11:01:11.394Z,1013.9
2022-08-26T11:02:04.970Z,1013.9
2022-08-26T11:03:02.020Z,1014
2022-08-26T11:04:02.866Z,1013.9
2022-08-26T11:05:02.739Z,1013.9
2022-08-26T11:06:02.711Z,1013.9
2022-08-26T11:07:03.311Z,1013.9
2022-08-26T11:08:02.355Z,1014
2022-08-26T11:09:02.346Z,1013.9
2022-08-26T11:10:03.308Z,1013.9
2022-08-26T11:11:02.100Z,1013.9
2022-08-26T11:12:10.840Z,1013.9
2022-08-26T11:13:02.904Z,1013.9
2022-08-26T11:14:02.718Z,1013.9
2022-08-26T11:15:06.312Z,1013.9
2022-08-26T11:16:02.221Z,1013.9
2022-08-26T11:17:02.654Z,1013.9
2022-08-26T11:18:03.213Z,1013.9
2022-08-26T11:19:02.285Z,1013.9
2022-08-26T11:20:13.926Z,1013.9
2022-08-26T11:21:02.843Z,1013.8
2022-08-26T11:22:04.838Z,1013.9
2022-08-26T11:23:02.933Z,1013.9
2022-08-26T11:24:05.489Z,1013.9
2022-08-26T11:25:02.708Z,1013.9
2022-08-26T11:26:04.050Z,1013.9
2022-08-26T11:27:02.238Z,1013.8
2022-08-26T11:28:02.580Z,1013.9
2022-08-26T11:29:03.794Z,1013.8
2022-08-26T11:30:02.792Z,1013.8
2022-08-26T11:31:05.061Z,1013.7
2022-08-26T11:32:03.324Z,1013.8
2022-08-26T11:33:05.047Z,1013.7
2022-08-26T11:34:03.094Z,1013.7
2022-08-26T11:35:02.302Z,1013.6
2022-08-26T11:36:13.057Z,1013.7
2022-08-26T11:37:04.601Z,1013.6
2022-08-26T11:38:04.792Z,1013.6
2022-08-26T11:39:03.298Z,1013.6
2022-08-26T11:40:04.461Z,1013.6
2022-08-26T11:41:04.461Z,1013.6
2022-08-26T11:42:02.542Z,1013.6
2022-08-26T11:43:02.438Z,1013.7
2022-08-26T11:44:02.269Z,1013.6
2022-08-26T11:45:06.157Z,1013.6
2022-08-26T11:46:03.447Z,1013.7
2022-08-26T11:47:03.014Z,1013.6
2022-08-26T11:48:01.988Z,1013.6
2022-08-26T11:49:01.999Z,1013.6
2022-08-26T11:50:02.160Z,1013.6
2022-08-26T11:51:03.139Z,1013.5
2022-08-26T11:52:02.929Z,1013.6
2022-08-26T11:53:02.986Z,1013.6
2022-08-26T11:54:01.793Z,1013.6
2022-08-26T11:55:02.779Z,1013.6
2022-08-26T11:56:03.005Z,1013.5
2022-08-26T11:57:12.224Z,1013.5
2022-08-26T11:58:05.803Z,1013.6
2022-08-26T11:59:02.723Z,1013.6
2022-08-26T12:00:02.861Z,1013.5
2022-08-26T12:01:04.209Z,1013.5
2022-08-26T12:02:02.514Z,1013.5
2022-08-26T12:03:02.643Z,1013.4
2022-08-26T12:04:03.102Z,1013.4
2022-08-26T12:05:02.448Z,1013.3
2022-08-26T12:06:03.148Z,1013.4
2022-08-26T12:07:02.140Z,1013.4
2022-08-26T12:08:03.219Z,1013.3
2022-08-26T12:09:02.438Z,1013.4
2022-08-26T12:10:02.847Z,1013.3
2022-08-26T12:11:02.896Z,1013.3
2022-08-26T12:12:02.728Z,1013.3
2022-08-26T12:13:03.598Z,1013.3
2022-08-26T12:14:02.594Z,1013.4
2022-08-26T12:15:03.887Z,1013.3
2022-08-26T12:16:05.382Z,1013.3
2022-08-26T12:17:02.297Z,1013.3
2022-08-26T12:18:02.347Z,1013.3
2022-08-26T12:19:02.279Z,1013.3
2022-08-26T12:20:02.270Z,1013.3
2022-08-26T12:21:02.727Z,1013.2
2022-08-26T12:22:03.237Z,1013.3
2022-08-26T12:23:02.054Z,1013.3
2022-08-26T12:24:02.940Z,1013.3
2022-08-26T12:25:03.123Z,1013.3
2022-08-26T12:26:04.250Z,1013.3
2022-08-26T12:27:02.054Z,1013.3
2022-08-26T12:28:01.970Z,1013.3
2022-08-26T12:29:26.706Z,1013.2
2022-08-26T12:30:02.154Z,1013.3
2022-08-26T12:31:02.307Z,1013.2
2022-08-26T12:32:02.427Z,1013.2
2022-08-26T12:33:23.344Z,1013.2
2022-08-26T12:34:02.456Z,1013.2
2022-08-26T12:35:08.025Z,1013.2